createdAt,value
2023-05-18T00:04:29.296Z,101512.66
2023-05-18T00:09:32.730Z,101510.75
2023-05-18T00:14:34.843Z,101522.00
2023-05-18T00:19:36.968Z,101521.00
2023-05-18T00:24:39.007Z,101514.78
2023-05-18T00:29:41.235Z,101504.03
2023-05-18T00:34:43.305Z,101495.81
2023-05-18T00:39:45.422Z,101502.69
2023-05-18T00:44:47.518Z,101506.09
2023-05-18T00:49:49.714Z,101495.44
2023-05-18T00:54:53.154Z,101502.22
2023-05-18T00:59:56.626Z,101508.97
2023-05-18T01:05:00.892Z,101509.56
2023-05-18T01:10:03.009Z,101516.22
2023-05-18T01:15:16.335Z,101536.03
2023-05-18T01:20:21.789Z,101530.59
2023-05-18T01:25:45.133Z,101537.22
2023-05-18T01:30:48.169Z,101539.44
2023-05-18T01:35:50.947Z,101549.66
2023-05-18T01:41:17.357Z,101558.91
2023-05-18T01:46:55.756Z,101563.72
2023-05-18T01:52:03.216Z,101568.50
2023-05-18T01:57:09.426Z,101571.06
2023-05-18T02:07:36.136Z,101565.34
2023-05-18T02:12:38.188Z,101566.91
2023-05-18T02:17:40.477Z,101573.63
2023-05-18T02:22:42.531Z,101584.81
2023-05-18T02:27:44.545Z,101569.03
2023-05-18T02:32:47.390Z,101576.59
2023-05-18T02:37:50.298Z,101577.28
2023-05-18T02:42:52.257Z,101591.13
2023-05-18T02:47:54.519Z,101602.41
2023-05-18T02:52:56.781Z,101601.50
2023-05-18T02:57:58.875Z,101611.88
2023-05-18T03:03:01.217Z,101618.72
2023-05-18T03:08:03.590Z,101619.41
2023-05-18T03:13:05.690Z,101622.16
2023-05-18T03:18:07.749Z,101633.41
2023-05-18T03:23:09.891Z,101636.25
2023-05-18T03:28:11.981Z,101637.09
2023-05-18T03:33:14.202Z,101640.78
2023-05-18T03:38:16.292Z,101643.47
2023-05-18T03:43:18.333Z,101641.78
2023-05-18T03:48:21.406Z,101652.59
2023-05-18T03:53:30.647Z,101659.72
2023-05-18T03:58:32.785Z,101657.69
2023-05-18T04:03:35.061Z,101664.09
2023-05-18T04:08:37.314Z,101668.00
2023-05-18T04:13:39.502Z,101665.00
2023-05-18T04:18:42.462Z,101668.19
2023-05-18T04:23:45.417Z,101671.44
2023-05-18T04:28:50.292Z,101672.81
2023-05-18T04:33:52.680Z,101673.38
2023-05-18T04:38:54.759Z,101672.97
2023-05-18T04:43:56.796Z,101677.06
2023-05-18T04:48:59.097Z,101679.22
2023-05-18T04:54:03.411Z,101680.59
2023-05-18T04:59:05.481Z,101680.34
2023-05-18T05:04:07.917Z,101683.63
2023-05-18T05:09:10.114Z,101688.78
2023-05-18T05:14:12.390Z,101694.94
2023-05-18T05:19:14.615Z,101698.31
2023-05-18T05:24:16.762Z,101699.50
2023-05-18T05:29:20.167Z,101698.59
2023-05-18T05:34:22.408Z,101698.31
2023-05-18T05:39:24.567Z,101686.28
2023-05-18T05:44:26.674Z,101690.25
2023-05-18T05:49:28.849Z,101689.63
2023-05-18T05:54:31.511Z,101688.22
2023-05-18T05:59:33.549Z,101687.59
2023-05-18T06:04:35.778Z,101686.13
2023-05-18T06:09:37.885Z,101690.69
2023-05-18T06:14:39.900Z,101690.06
2023-05-18T06:19:42.661Z,101688.53
2023-05-18T06:24:44.854Z,101691.47
2023-05-18T06:29:47.050Z,101697.03
2023-05-18T06:34:50.956Z,101704.28
2023-05-18T06:39:56.513Z,101696.41
2023-05-18T06:44:58.548Z,101704.69
2023-05-18T06:50:00.674Z,101696.78
2023-05-18T06:55:02.841Z,101708.44
2023-05-18T07:00:07.661Z,101704.94
2023-05-18T07:05:09.879Z,101706.75
2023-05-18T07:10:11.983Z,101702.31
2023-05-18T07:15:14.071Z,101712.06
2023-05-18T07:20:16.318Z,101708.38
2023-05-18T07:25:18.521Z,101722.59
2023-05-18T07:30:21.582Z,101715.41
2023-05-18T07:35:24.500Z,101716.34
2023-05-18T07:40:26.663Z,101714.31
2023-05-18T07:45:29.171Z,101712.41
2023-05-18T07:50:31.586Z,101716.06
2023-05-18T07:55:34.019Z,101708.78
2023-05-18T08:00:36.646Z,101717.75
2023-05-18T08:05:38.832Z,101727.34
2023-05-18T08:10:42.066Z,101730.88
2023-05-18T08:15:44.264Z,101731.53
2023-05-18T08:20:46.947Z,101722.63
2023-05-18T08:25:49.015Z,101735.88
2023-05-18T08:30:52.240Z,101726.88
2023-05-18T08:35:54.336Z,101725.19
2023-05-18T08:41:08.156Z,101733.16
2023-05-18T08:46:28.791Z,101732.38
2023-05-18T08:51:35.029Z,101733.28
2023-05-18T08:56:39.325Z,101731.41
2023-05-18T09:01:41.938Z,101728.41
2023-05-18T09:06:44.277Z,101735.69
2023-05-18T09:11:49.053Z,101730.91
2023-05-18T09:16:54.817Z,101730.19
2023-05-18T09:21:57.046Z,101730.41
2023-05-18T09:27:01.094Z,101730.03
2023-05-18T09:32:05.340Z,101732.28
2023-05-18T09:37:11.108Z,101724.72
2023-05-18T09:42:13.222Z,101714.41
2023-05-18T09:47:18.619Z,101712.03
2023-05-18T09:52:24.940Z,101713.59
2023-05-18T09:57:27.698Z,101727.69
2023-05-18T10:02:31.331Z,101727.13
2023-05-18T10:07:36.645Z,101727.72
2023-05-18T10:12:42.101Z,101721.25
2023-05-18T10:17:45.520Z,101732.25
2023-05-18T10:22:49.241Z,101736.84
2023-05-18T10:27:56.848Z,101725.97
2023-05-18T10:33:01.782Z,101728.16
2023-05-18T10:38:06.014Z,101720.78
2023-05-18T10:43:08.505Z,101724.38
2023-05-18T10:48:11.705Z,101721.31
2023-05-18T10:53:17.318Z,101711.31
2023-05-18T10:58:23.771Z,101720.97
2023-05-18T11:03:27.868Z,101711.44
2023-05-18T11:08:30.439Z,101715.50
2023-05-18T11:13:33.892Z,101720.00
2023-05-18T11:18:46.622Z,101719.44
2023-05-18T11:24:29.664Z,101705.75
2023-05-18T11:29:36.590Z,101707.47
2023-05-18T11:34:48.115Z,101708.00
2023-05-18T11:40:00.110Z,101696.13
2023-05-18T11:45:08.658Z,101704.19
2023-05-18T11:50:15.003Z,101695.50
2023-05-18T11:55:21.691Z,101696.00
2023-05-18T12:00:26.521Z,101707.25
2023-05-18T12:05:40.350Z,101702.41
2023-05-18T12:10:45.199Z,101698.50
2023-05-18T12:15:49.423Z,101692.09
2023-05-18T12:20:54.439Z,101695.72
2023-05-18T12:25:57.560Z,101701.78
2023-05-18T12:31:11.638Z,101688.16
2023-05-18T12:36:15.873Z,101687.63
2023-05-18T12:41:26.734Z,101687.47
2023-05-18T12:46:29.121Z,101687.91
2023-05-18T12:51:36.362Z,101687.81
2023-05-18T12:56:52.741Z,101681.53
2023-05-18T13:01:57.056Z,101686.84
2023-05-18T13:06:59.112Z,101685.47
2023-05-18T13:17:07.746Z,101678.59
2023-05-18T13:22:09.858Z,101682.03
2023-05-18T13:27:12.204Z,101674.66
2023-05-18T13:32:14.695Z,101679.31
2023-05-18T13:37:16.837Z,101669.53
2023-05-18T13:42:21.605Z,101659.63
2023-05-18T13:47:23.641Z,101669.88
2023-05-18T13:52:26.606Z,101669.34
2023-05-18T13:57:32.074Z,101671.47
2023-05-18T14:02:34.323Z,101669.97
2023-05-18T14:07:42.256Z,101671.94
2023-05-18T14:12:44.847Z,101675.78
2023-05-18T14:17:47.226Z,101678.63
2023-05-18T14:22:49.424Z,101683.88
2023-05-18T14:27:51.657Z,101667.75
2023-05-18T14:32:54.262Z,101662.75
2023-05-18T14:37:57.093Z,101669.34
2023-05-18T14:42:59.370Z,101667.78
2023-05-18T14:48:02.137Z,101666.16
2023-05-18T14:53:05.796Z,101671.63
2023-05-18T14:58:11.252Z,101674.75
2023-05-18T15:03:13.988Z,101672.91
2023-05-18T15:08:16.194Z,101668.75
2023-05-18T15:13:18.666Z,101673.25
2023-05-18T15:18:21.119Z,101671.75
2023-05-18T15:23:23.811Z,101669.25
2023-05-18T15:28:26.238Z,101665.78
2023-05-18T15:33:28.461Z,101663.34
2023-05-18T15:38:31.132Z,101668.00
2023-05-18T15:43:34.109Z,101664.59
2023-05-18T15:48:36.648Z,101668.28
2023-05-18T15:53:40.412Z,101671.13
2023-05-18T15:58:42.487Z,101679.41
2023-05-18T16:03:44.670Z,101683.16
2023-05-18T16:08:46.859Z,101679.69
2023-05-18T16:13:57.125Z,101682.47
2023-05-18T16:19:01.062Z,101679.97
2023-05-18T16:24:03.173Z,101680.03
2023-05-18T16:29:05.324Z,101671.28
2023-05-18T16:34:09.626Z,101679.47
2023-05-18T16:39:12.491Z,101674.13
2023-05-18T16:44:15.746Z,101677.81
2023-05-18T16:49:17.907Z,101672.59
2023-05-18T16:54:20.140Z,101670.84
2023-05-18T16:59:23.468Z,101673.63
2023-05-18T17:04:26.159Z,101676.44
2023-05-18T17:09:28.526Z,101677.44
2023-05-18T17:14:31.356Z,101676.63
2023-05-18T17:19:35.413Z,101687.41
2023-05-18T17:24:38.057Z,101683.94
2023-05-18T17:29:42.348Z,101676.91
2023-05-18T17:34:45.580Z,101691.25
2023-05-18T17:39:48.301Z,101703.75
2023-05-18T17:44:50.905Z,101697.56
2023-05-18T17:49:54.208Z,101707.41
2023-05-18T17:54:59.521Z,101704.78
2023-05-18T18:00:03.629Z,101706.59
2023-05-18T18:05:06.712Z,101712.91
2023-05-18T18:10:09.607Z,101712.94
2023-05-18T18:15:14.801Z,101713.84
2023-05-18T18:20:36.841Z,101721.88
2023-05-18T18:25:40.665Z,101716.56
2023-05-18T18:30:44.670Z,101720.97
2023-05-18T18:35:48.172Z,101726.34
2023-05-18T18:40:54.677Z,101729.00
2023-05-18T18:45:57.943Z,101747.69
2023-05-18T18:51:00.331Z,101748.53
2023-05-18T18:56:03.383Z,101744.94
2023-05-18T19:01:10.176Z,101759.16
2023-05-18T19:06:25.099Z,101751.97
2023-05-18T19:11:29.246Z,101751.06
2023-05-18T19:16:50.327Z,101754.56
2023-05-18T19:21:57.694Z,101758.13
2023-05-18T19:27:05.821Z,101761.66
2023-05-18T19:32:10.408Z,101757.16
2023-05-18T19:37:18.622Z,101766.00
2023-05-18T19:42:28.547Z,101764.22
2023-05-18T19:47:32.116Z,101770.41
2023-05-18T19:52:39.440Z,101770.31
2023-05-18T19:57:43.552Z,101774.75
2023-05-18T20:02:48.249Z,101777.34
2023-05-18T20:07:52.039Z,101788.00
2023-05-18T20:13:03.593Z,101787.06
2023-05-18T20:18:07.661Z,101785.25
2023-05-18T20:23:11.599Z,101789.63
2023-05-18T20:28:14.598Z,101789.63
2023-05-18T20:33:26.145Z,101798.47
2023-05-18T20:38:35.841Z,101797.53
2023-05-18T20:43:40.723Z,101799.28
2023-05-18T20:48:45.467Z,101797.50
2023-05-18T20:53:48.498Z,101804.53
2023-05-18T20:58:53.917Z,101799.19
2023-05-18T21:03:59.543Z,101805.38
2023-05-18T21:09:02.081Z,101805.31
2023-05-18T21:14:04.958Z,101804.47
2023-05-18T21:19:09.525Z,101808.84
2023-05-18T21:24:12.906Z,101808.81
2023-05-18T21:29:15.286Z,101818.56
2023-05-18T21:34:19.486Z,101814.94
2023-05-18T21:39:26.261Z,101808.75
2023-05-18T21:44:28.448Z,101814.03
2023-05-18T21:49:30.394Z,101818.44
2023-05-18T21:54:33.727Z,101820.13
2023-05-18T21:59:35.905Z,101825.47
2023-05-18T22:04:37.984Z,101818.34
2023-05-18T22:09:40.060Z,101823.63
2023-05-18T22:14:41.949Z,101820.94
2023-05-18T22:19:45.081Z,101820.91
2023-05-18T22:24:49.003Z,101821.78
2023-05-18T22:29:51.223Z,101816.41
2023-05-18T22:34:53.873Z,101818.16
2023-05-18T22:39:56.175Z,101825.28
2023-05-18T22:44:58.446Z,101822.59
2023-05-18T22:50:00.695Z,101824.34
2023-05-18T22:55:02.808Z,101819.00
2023-05-18T23:00:06.474Z,101819.91
2023-05-18T23:05:09.322Z,101827.00
2023-05-18T23:10:12.512Z,101826.00
2023-05-18T23:15:15.739Z,101828.66
2023-05-18T23:20:17.738Z,101827.72
2023-05-18T23:25:19.791Z,101825.94
2023-05-18T23:30:21.689Z,101823.28
2023-05-18T23:35:23.974Z,101816.16
2023-05-18T23:40:26.339Z,101820.63
2023-05-18T23:45:28.881Z,101816.16
2023-05-18T23:50:31.500Z,101823.25
2023-05-18T23:55:37.675Z,101816.13
